Flight Track Log - Related Links

Times and Time Zones

All times are in EDT time to prevent confusion due to time zone crossing. See the CES5120 flight status page for this flight to view local times or setup timezone preferences in your user account.

Time Position Orientation Groundspeed Altitude Reporting Facility
EDT Latitude Longitude Course Direction KTS MPH feet Rate Location/Type
Fri 08:38:31 AM 40.1920 116.5883 25° Northeast 264 304 4,500  Level FlightAware ADS-B
Fri 08:38:40 AM 40.2008 116.5969 42° Northeast 267 307 5,000 3,000 Climbing FlightAware ADS-B
Fri 08:38:45 AM 40.2056 116.6046 54° Northeast 269 310 5,200 3,000 Climbing FlightAware ADS-B
Fri 08:38:50 AM 40.2083 116.6110 61° Northeast 270 311 5,500 3,000 Climbing FlightAware ADS-B
Fri 08:38:55 AM 40.2106 116.6194 72° East 271 312 5,700 2,727 Climbing FlightAware ADS-B
Fri 08:39:01 AM 40.2120 116.6273 78° East 270 311 6,000 3,900 Climbing FlightAware ADS-B
Fri 08:39:15 AM 40.2154 116.6516 79° East 267 307 7,000 3,310 Climbing FlightAware ADS-B
Fri 08:39:30 AM 40.2186 116.6760 80° East 278 320 7,600 2,600 Climbing FlightAware ADS-B
Fri 08:39:45 AM 40.2219 116.7013 79° East 287 330 8,300 2,710 Climbing FlightAware ADS-B
Fri 08:40:01 AM 40.2253 116.7278 80° East 295 339 9,000 2,903 Climbing FlightAware ADS-B
Fri 08:40:16 AM 40.2283 116.7534 83° East 298 343 9,800 2,880 Climbing FlightAware ADS-B
Fri 08:40:26 AM 40.2278 116.7711 97° East 301 346 10,200 2,211 Climbing FlightAware ADS-B
Fri 08:40:35 AM 40.2242 116.7900 108° East 310 357 10,500 1,412 Climbing FlightAware ADS-B
Fri 08:40:43 AM 40.2190 116.8036 120° Southeast 317 365 10,600 1,143 Climbing FlightAware ADS-B
Fri 08:40:56 AM 40.2069 116.8210 140° Southeast 325 374 10,900 1,429 Climbing FlightAware ADS-B
Fri 08:41:04 AM 40.1952 116.8297 155° Southeast 331 381 11,100 1,579 Climbing FlightAware ADS-B
Fri 08:41:15 AM 40.1781 116.8348 172° South 335 386 11,400 2,857 Climbing FlightAware ADS-B
Fri 08:41:46 AM 40.1324 116.8412 173° South 336 387 13,100 3,049 Climbing FlightAware ADS-B
Fri 08:42:16 AM 40.0857 116.8486 173° South 341 392 14,500 3,153 Climbing FlightAware ADS-B
Fri 08:42:45 AM 40.0380 116.8559 173° South 339 390 16,200 2,800 Climbing FlightAware ADS-B
Fri 08:43:16 AM 39.9898 116.8631 173° South 355 409 17,300 2,164 Climbing FlightAware ADS-B
Fri 08:43:46 AM 39.9400 116.8704 173° South 365 420 18,400 2,200 Climbing FlightAware ADS-B
Fri 08:44:16 AM 39.8886 116.8783 173° South 374 430 19,500 1,063 Climbing FlightAware ADS-B
Fri 08:45:05 AM 39.8009 116.8915 173° South 380 437 19,800 1,200 Climbing FlightAware ADS-B
Fri 08:45:36 AM 39.7500 116.8994 173° South 366 421 21,100 2,800 Climbing FlightAware ADS-B
Fri 08:46:05 AM 39.7002 116.9069 173° South 358 412 22,600 2,400 Climbing FlightAware ADS-B
Fri 08:46:36 AM 39.6504 116.9143 173° South 370 426 23,500 2,000 Climbing FlightAware ADS-B
Fri 08:47:05 AM 39.5982 116.9220 173° South 371 427 24,600 1,900 Climbing FlightAware ADS-B
Fri 08:47:36 AM 39.5462 116.9297 173° South 383 441 25,400 1,600 Climbing FlightAware ADS-B
Fri 08:48:05 AM 39.4922 116.9378 173° South 392 451 26,200 1,200 Climbing FlightAware ADS-B
Fri 08:48:36 AM 39.4378 116.9459 173° South 391 450 26,600 885 Climbing FlightAware ADS-B
Fri 08:49:06 AM 39.3827 116.9540 173° South 404 465 27,100 1,322 Climbing FlightAware ADS-B
Fri 08:49:35 AM 39.3278 116.9621 173° South 414 476 27,900 1,729 Climbing FlightAware ADS-B
Fri 08:50:05 AM 39.2704 116.9707 173° South 420 483 28,800 1,180 Climbing FlightAware ADS-B
Fri 08:50:36 AM 39.2127 116.9793 173° South 418 481 29,100 295 Climbing FlightAware ADS-B
Fri 08:51:06 AM 39.1549 116.9879 173° South 415 478 29,100 814 Level FlightAware ADS-B
Fri 08:51:35 AM 39.0961 116.9969 172° South 416 479 29,900 1,789 Climbing FlightAware ADS-B
Fri 08:52:03 AM 39.0427 117.0077 170° South 420 483 30,800 1,700 Climbing FlightAware ADS-B
Fri 08:52:35 AM 38.9873 117.0192 171° South 424 488 31,600 1,355 Climbing FlightAware ADS-B
Fri 08:53:05 AM 38.9403 117.0285 171° South 428 493 32,200 1,125 Climbing FlightAware ADS-B
Fri 08:53:39 AM 38.8656 117.0431 171° South 436 502 32,800 1,317 Climbing FlightAware ADS-B
Fri 08:54:27 AM 38.7573 117.0642 171° South 436 502 34,000 1,295 Climbing FlightAware ADS-B
Fri 08:58:31 AM 38.2735 117.1574 171° South 437 503 39,100 1,138 Climbing FlightAware ADS-B
Fri 08:58:56 AM 38.2262 117.1664 171° South 438 504 39,100  Level FlightAware ADS-B
Fri 09:02:10 AM 37.8358 117.2408 171° South 438 504 39,100  Level FlightAware ADS-B
Fri 09:04:26 AM 37.5629 117.2920 171° South 440 506 39,100  Level FlightAware ADS-B
Fri 09:04:57 AM 37.5032 117.3031 171° South 439 505 39,100  Level FlightAware ADS-B
Fri 09:05:41 AM 37.4125 117.3201 171° South 438 504 39,100  Level FlightAware ADS-B
Fri 09:06:26 AM 37.3256 117.3364 171° South 439 505 39,100  Level FlightAware ADS-B
Fri 09:06:56 AM 37.2615 117.3484 171° South 439 505 39,100  Level FlightAware ADS-B
Fri 09:07:27 AM 37.2000 117.3598 171° South 441 507 39,100  Level FlightAware ADS-B
Fri 09:07:37 AM 37.1884 117.3620 171° South 442 509 39,100  Level FlightAware ADS-B
Fri 09:08:26 AM 37.0819 117.3817 171° South 442 509 39,100  Level FlightAware ADS-B
Fri 09:08:57 AM 37.0171 117.3936 171° South 441 507 39,100  Level FlightAware ADS-B
Fri 09:09:27 AM 36.9570 117.4048 171° South 439 505 39,100  Level FlightAware ADS-B
Fri 09:09:56 AM 36.8960 117.4160 171° South 439 505 39,100  Level FlightAware ADS-B
Fri 09:10:26 AM 36.8376 117.4267 171° South 441 507 39,100  Level FlightAware ADS-B
Fri 09:10:57 AM 36.7743 117.4385 171° South 440 506 39,100  Level FlightAware ADS-B
Fri 09:11:26 AM 36.7159 117.4492 171° South 441 507 39,100  Level FlightAware ADS-B
Fri 09:11:57 AM 36.6534 117.4606 171° South 443 510 39,100  Level FlightAware ADS-B
Fri 09:12:26 AM 36.5923 117.4718 171° South 444 511 39,100  Level FlightAware ADS-B
Fri 09:12:57 AM 36.5308 117.4831 171° South 444 511 39,100  Level FlightAware ADS-B
Fri 09:13:26 AM 36.4710 117.4940 171° South 443 510 39,100  Level FlightAware ADS-B
Fri 09:13:57 AM 36.4088 117.5053 171° South 442 509 39,100  Level FlightAware ADS-B
Fri 09:14:27 AM 36.3494 117.5161 171° South 441 507 39,100  Level FlightAware ADS-B
Fri 09:14:57 AM 36.2874 117.5274 171° South 442 509 39,100  Level FlightAware ADS-B
Fri 09:15:26 AM 36.2275 117.5381 171° South 441 507 39,100  Level FlightAware ADS-B
Fri 09:15:57 AM 36.1659 117.5492 171° South 440 506 39,100  Level FlightAware ADS-B
Fri 09:16:26 AM 36.1069 117.5599 171° South 441 507 39,100  Level FlightAware ADS-B
Fri 09:16:56 AM 36.0447 117.5712 171° South 441 507 39,100  Level FlightAware ADS-B
Fri 09:17:27 AM 35.9839 117.5821 171° South 442 509 39,100  Level FlightAware ADS-B
Fri 09:17:52 AM 35.9420 117.5897 171° South 441 507 39,100  Level FlightAware ADS-B
Fri 09:18:20 AM 35.8761 117.6016 171° South 441 507 39,100  Level FlightAware ADS-B
Fri 09:18:57 AM 35.8017 117.6149 171° South 442 509 39,100  Level FlightAware ADS-B
Fri 09:19:25 AM 35.7480 117.6245 171° South 442 509 39,100  Level FlightAware ADS-B
Fri 09:19:56 AM 35.6826 117.6362 171° South 442 509 39,100  Level FlightAware ADS-B
Fri 09:20:26 AM 35.6213 117.6471 171° South 440 506 39,100  Level FlightAware ADS-B
Fri 09:20:56 AM 35.5583 117.6583 171° South 439 505 39,100  Level FlightAware ADS-B
Fri 09:21:25 AM 35.5025 117.6682 171° South 438 504 39,100  Level FlightAware ADS-B
Fri 09:21:52 AM 35.4702 117.6739 171° South 438 504 39,100  Level FlightAware ADS-B
Fri 09:22:26 AM 35.3793 117.6900 171° South 439 505 39,100  Level FlightAware ADS-B
Fri 09:22:32 AM 35.3658 117.6925 172° South 439 505 39,100  Level FlightAware ADS-B (KGTU)
Fri 09:22:56 AM 35.3187 117.7009 171° South 439 505 39,100  Level FlightAware ADS-B
Fri 09:23:26 AM 35.2566 117.7118 171° South 442 509 39,100  Level FlightAware ADS-B
Fri 09:23:34 AM 35.2753 117.7085 172° South 442 509 39,100  Level FlightAware ADS-B (KGTU)
Fri 09:23:57 AM 35.1950 117.7227 171° South 443 510 39,100  Level FlightAware ADS-B
Fri 09:24:26 AM 35.1346 117.7334 171° South 441 507 39,100  Level FlightAware ADS-B
Fri 09:24:33 AM 35.1319 117.7338 172° South 442 509 39,100  Level FlightAware ADS-B (KGTU)
Fri 09:24:54 AM 35.0824 117.7426 171° South 441 507 39,100  Level FlightAware ADS-B
Fri 09:25:16 AM 35.0522 117.7479 172° South 443 510 39,100  Level FlightAware ADS-B (KGTU)
Fri 09:25:54 AM 34.9581 117.7643 172° South 442 509 39,100  Level FlightAware ADS-B (KGTU)
Fri 09:26:31 AM 34.8820 117.7775 171° South 444 511 39,100  Level FlightAware ADS-B
Fri 09:26:34 AM 34.8753 117.7787 172° South 445 512 39,100  Level FlightAware ADS-B (KGTU)
Fri 09:28:48 AM 34.6061 117.8691 163° South 457 526 39,100  Level FlightAware ADS-B (KGTU)
Fri 09:29:01 AM 34.5946 117.8735 162° South 457 526 39,100  Level FlightAware ADS-B
Fri 09:29:35 AM 34.5306 117.8973 163° South 457 526 39,100  Level FlightAware ADS-B (KGTU)
Fri 09:30:27 AM 34.4027 117.9449 163° South 459 528 39,100  Level FlightAware ADS-B (KGTU)
Fri 09:30:46 AM 34.3656 117.9586 162° South 462 532 39,100  Level FlightAware ADS-B
Fri 09:31:06 AM 34.3460 117.9660 162° South 463 533 39,100  Level FlightAware ADS-B
Fri 09:31:45 AM 34.2450 118.0035 163° South 463 533 39,100  Level FlightAware ADS-B
Fri 09:32:16 AM 34.1796 118.0272 163° South 466 536 39,100  Level FlightAware ADS-B
Fri 09:32:46 AM 34.1181 118.0495 163° South 469 540 39,100  Level FlightAware ADS-B
Fri 09:32:55 AM 34.0988 118.0565 163° South 470 541 39,100 -840 Level FlightAware ADS-B
Fri 10:17:10 AM 31.3195 121.3297 177° South 131 151 1,800 -839 Descending FlightAware ADS-B (ZSSS / SHA)
Fri 10:17:30 AM 31.3055 121.3304 177° South 131 151 1,700 -343 Descending FlightAware ADS-B (ZSSS / SHA)
Fri 10:17:45 AM 31.2961 121.3310 177° South 124 143 1,600 -600 Descending FlightAware ADS-B (ZSSS / SHA)
Fri 10:18:00 AM 31.2876 121.3315 178° South 127 146 1,400 -800 Descending FlightAware ADS-B (ZSSS / SHA)
Fri 10:18:15 AM 31.2784 121.3320 178° South 129 148 1,200 -621 Descending FlightAware ADS-B (ZSSS / SHA)
Fri 10:18:29 AM 31.2703 121.3324 176° South 122 140 1,100 -581 Descending FlightAware ADS-B (ZSSS / SHA)
Fri 10:18:46 AM 31.2608 121.3328 179° South 122 140 900 -774 Descending FlightAware ADS-B (ZSSS / SHA)
Fri 10:19:00 AM 31.2525 121.3332 177° South 121 139 700 -621 Descending FlightAware ADS-B (ZSSS / SHA)
Fri 10:19:15 AM 31.2442 121.3338 176° South 126 145 600 -581 Descending FlightAware ADS-B (ZSSS / SHA)
Fri 10:19:31 AM 31.2352 121.3343 177° South 122 140 400 -632 Descending FlightAware ADS-B (ZSSS / SHA)
Fri 10:19:53 AM 31.2234 121.3349 176° South 122 140 200 -545 Descending FlightAware ADS-B (ZSSS / SHA)
Fri 10:22:00 AM 31.1979 121.3363 177° South  Level Estimated

Login

Don't have an account? Register now (free) for customized features, flight alerts, and more!